• Join FlightAware (Why Join?)
  • Login
  • US Flag 
01:19AM EDT


 

Airport Tracker/Info


-or-


 

Live Flight TrackerFlight Track Log ✈ UCA3598 ✈ 13-Nov-2013 ✈ KIAD - KBGM

Flight Track Log - Related Links

Times and Time Zones

All times are in EST time to prevent confusion due to time zone crossing. See the UCA3598 flight status page for this flight to view local times or setup timezone preferences in your user account.

Time Position Orientation Groundspeed Altitude Reporting Facility
EST Latitude Longitude Course Direction KTS MPH feet Rate Location/Type
10:18PM 38.9833 -77.4500 334° Northwest 133 153 2,500  Level Potomac TRACON
10:20PM 39.0589 -77.4975 334° Northwest 155 178 6,500 1,680 Climbing Washington Center
10:21PM 39.0981 -77.5172 339° North 155 178 8,400 1,620 Climbing Washington Center
10:22PM 39.1417 -77.5239 353° North 155 178 9,700 1,140 Climbing Washington Center
10:23PM 39.1939 -77.5278 357° North 164 189 10,800 840 Climbing Washington Center
10:24PM 39.2522 -77.5186 North 183 211 11,500 600 Climbing Washington Center
10:25PM 39.3108 -77.5067 North 202 232 12,000 480 Climbing Washington Center
10:26PM 39.3756 -77.4978 North 214 246 12,500 660 Climbing Washington Center
10:27PM 39.4361 -77.4886 North 220 253 13,400 960 Climbing Washington Center
10:28PM 39.4947 -77.4794 North 220 253 14,500 900 Climbing Washington Center
10:29PM 39.5531 -77.4703 North 220 253 15,200 900 Climbing Washington Center
10:30PM 39.6258 -77.4558 North 211 243 16,500 960 Climbing New York Center
10:31PM 39.6908 -77.4514 North 206 237 17,400 660 Climbing New York Center
10:32PM 39.7431 -77.4481 North 206 237 17,900 360 Climbing New York Center
10:33PM 39.8031 -77.4186 21° North 201 231 18,200 420 Climbing New York Center
10:34PM 39.8528 -77.3908 23° Northeast 217 250 18,800 360 Climbing New York Center
10:35PM 39.9172 -77.3564 22° Northeast 217 250 19,000 60 Climbing New York Center
10:36PM 39.9750 -77.3267 22° Northeast 230 265 19,000  Level New York Center
10:37PM 40.0458 -77.2900 22° Northeast 242 278 19,000  Level New York Center
10:38PM 40.1039 -77.2600 22° Northeast 242 278 19,000  Level New York Center
10:39PM 40.1747 -77.2231 22° Northeast 242 278 19,000  Level New York Center
10:40PM 40.2328 -77.1933 21° North 242 278 19,000  Level New York Center
10:41PM 40.3033 -77.1561 22° Northeast 237 273 19,000  Level New York Center
10:42PM 40.3614 -77.1261 21° North 237 273 19,000  Level New York Center
10:43PM 40.4322 -77.0864 23° Northeast 237 273 19,000  Level New York Center
10:44PM 40.4922 -77.0564 21° North 242 278 19,000  Level New York Center
10:45PM 40.5631 -77.0164 23° Northeast 242 278 19,000  Level New York Center
10:46PM 40.6231 -76.9861 21° North 242 278 19,000 -300 Level New York Center
10:47PM 40.6961 -76.9461 23° Northeast 242 278 18,500 -540 Descending New York Center
10:48PM 40.7561 -76.9133 22° Northeast 252 290 18,000 -360 Descending New York Center
10:49PM 40.8292 -76.8733 23° Northeast 257 296 17,800 -300 Descending New York Center
10:50PM 40.8975 -76.8381 21° North 257 296 17,400 -480 Descending New York Center
10:51PM 40.9578 -76.8022 24° Northeast 262 302 16,900 -540 Descending New York Center
10:52PM 41.0264 -76.7644 23° Northeast 262 302 16,400 -540 Descending New York Center
10:53PM 41.0928 -76.7289 22° Northeast 262 302 15,900 -540 Descending New York Center
10:54PM 41.1697 -76.6889 21° North 262 302 15,400 -540 Descending New York Center
10:55PM 41.2383 -76.6481 24° Northeast 262 302 14,900 -540 Descending New York Center
10:56PM 41.3028 -76.6122 23° Northeast 262 302 14,400 -540 Descending New York Center
10:57PM 41.3733 -76.5739 22° Northeast 262 302 13,900 -600 Descending New York Center
10:58PM 41.4503 -76.5336 21° North 262 302 13,300 -480 Descending New York Center
10:59PM 41.5167 -76.4950 24° Northeast 262 302 13,000 -300 Descending New York Center
11:00PM 41.5767 -76.4611 23° Northeast 262 302 12,800 -360 Descending New York Center
11:01PM 41.6450 -76.4253 21° North 262 302 12,300 -600 Descending New York Center
11:02PM 41.7181 -76.3789 25° Northeast 262 302 11,700 -900 Descending New York Center
11:03PM 41.7831 -76.3258 31° Northeast 272 313 10,600 -1,200 Descending New York Center
11:04PM 41.8503 -76.2703 32° Northeast 278 320 9,300 -1,380 Descending New York Center
11:05PM 41.9086 -76.2219 32° Northeast 278 320 7,900 -1,500 Descending New York Center
11:06PM 41.9661 -76.1486 43° Northeast 278 320 6,400 -1,440 Descending New York Center
11:07PM 42.0217 -76.0667 48° Northeast 273 314 5,100 -1,200 Descending New York Center
11:08PM 42.0750 -75.9928 46° Northeast 266 306 4,000 -840 Descending New York Center
11:09PM 42.1147 -75.9400 45° Northeast 242 278 3,500 -600 Descending New York Center
11:10PM 42.1525 -75.9344 North 170 196 2,800 -780 Descending New York Center
11:11PM 42.1828 -75.9592 329° Northwest 121 139 2,000 -420 Descending New York Center
11:12PM 42.2142 -75.9506 11° North 121 139 2,000 3,480 Level New York Center
11:13PM 42.2453 -75.9531 357° North 121 139 9,000 3,480 Climbing New York Center
11:14PM 42.2764 -75.9556 357° North 121 139 9,000  Level New York Center
11:16PM 42.2084 -75.9796 223° Southwest  Level Estimated